Time;durP1;ratioP1;P1;durP2;ratioP2;P2;SDS_P1;SDS_P2;PMS_P1;PMS_P2;Temp;Humidity;BMP_temperature;BMP_pressure;BME280_temperature;BME280_humidity;BME280_pressure;Samples;Min_cycle;Max_cycle;Signal;HPM_P1;HPM_P2
2020/12/27 00:02:21;;;;;;;5.75;2.20;;;;;;;;;;4896803;29;20055;-69
2020/12/27 00:04:47;;;;;;;4.28;2.35;;;;;;;;;;4893353;29;20045;-68
2020/12/27 00:07:14;;;;;;;5.97;2.50;;;;;;;;;;4894039;29;20464;-68
2020/12/27 00:09:41;;;;;;;4.72;2.35;;;;;;;;;;4886852;29;20044;-69
2020/12/27 00:12:08;;;;;;;4.50;2.53;;;;;;;;;;4894698;29;20064;-68
2020/12/27 00:14:34;;;;;;;8.90;2.53;;;;;;;;;;4898850;29;20048;-69
2020/12/27 00:17:11;;;;;;;6.30;2.85;;;;;;;;;;4894471;29;20392;-69
2020/12/27 00:19:38;;;;;;;5.03;2.40;;;;;;;;;;4895872;29;20608;-68
2020/12/27 00:22:04;;;;;;;5.63;2.20;;;;;;;;;;4893398;29;20112;-69
2020/12/27 00:24:30;;;;;;;6.68;2.30;;;;;;;;;;4891604;29;20049;-69
2020/12/27 00:26:56;;;;;;;4.80;2.25;;;;;;;;;;4894672;29;20040;-68
2020/12/27 00:29:23;;;;;;;5.65;2.47;;;;;;;;;;4894819;29;20049;-69
2020/12/27 00:31:51;;;;;;;6.45;2.63;;;;;;;;;;4896654;29;20041;-69
2020/12/27 00:34:17;;;;;;;3.40;2.10;;;;;;;;;;4894282;29;20477;-69
2020/12/27 00:36:44;;;;;;;2.83;2.00;;;;;;;;;;4894943;29;20040;-68
2020/12/27 00:39:10;;;;;;;3.10;2.08;;;;;;;;;;4896685;29;20037;-69
2020/12/27 00:41:36;;;;;;;4.30;2.22;;;;;;;;;;4894506;29;20066;-69
2020/12/27 00:44:02;;;;;;;6.68;2.22;;;;;;;;;;4887753;29;20044;-68
2020/12/27 00:46:29;;;;;;;4.63;2.00;;;;;;;;;;4891539;29;20051;-69
2020/12/27 00:48:55;;;;;;;3.70;2.05;;;;;;;;;;4876067;29;20585;-69
2020/12/27 00:51:22;;;;;;;5.78;2.50;;;;;;;;;;4895627;29;20199;-69
2020/12/27 00:53:49;;;;;;;5.40;2.35;;;;;;;;;;4893466;29;20048;-69
2020/12/27 00:56:16;;;;;;;7.95;2.30;;;;;;;;;;4891377;29;20662;-68
2020/12/27 00:58:55;;;;;;;5.15;2.47;;;;;;;;;;4877239;29;20048;-69
2020/12/27 01:01:21;;;;;;;6.15;2.40;;;;;;;;;;4878797;29;20093;-69
2020/12/27 01:03:48;;;;;;;5.35;2.60;;;;;;;;;;4891149;29;20041;-69
2020/12/27 01:06:15;;;;;;;;;;;;;;;;;;4894946;29;20123;-69
2020/12/27 01:08:42;;;;;;;6.25;2.40;;;;;;;;;;4893760;29;19931;-69
2020/12/27 01:11:09;;;;;;;7.22;2.55;;;;;;;;;;4895510;29;20119;-69
2020/12/27 01:13:37;;;;;;;5.97;2.20;;;;;;;;;;4874584;29;20048;-69
2020/12/27 01:16:04;;;;;;;8.20;2.72;;;;;;;;;;4875113;29;20052;-69
2020/12/27 01:18:30;;;;;;;5.13;2.45;;;;;;;;;;4893008;29;20067;-69
2020/12/27 01:20:56;;;;;;;7.47;2.70;;;;;;;;;;4890267;29;20049;-69
2020/12/27 01:23:23;;;;;;;6.07;2.72;;;;;;;;;;4895114;29;20067;-68
2020/12/27 01:25:49;;;;;;;6.05;2.88;;;;;;;;;;4880965;29;20426;-69
2020/12/27 01:28:16;;;;;;;10.32;3.08;;;;;;;;;;4877549;29;20135;-69
2020/12/27 01:30:47;;;;;;;5.72;3.05;;;;;;;;;;4895861;29;20048;-69
2020/12/27 01:33:21;;;;;;;6.88;2.78;;;;;;;;;;4890740;29;20136;-69
2020/12/27 01:35:55;;;;;;;9.85;2.97;;;;;;;;;;4874989;29;20141;-69
2020/12/27 01:38:21;;;;;;;6.57;3.08;;;;;;;;;;4891488;29;20500;-69
2020/12/27 01:40:48;;;;;;;7.30;3.43;;;;;;;;;;4890967;29;20134;-68
2020/12/27 01:43:18;;;;;;;5.68;3.30;;;;;;;;;;4878676;29;20297;-69
2020/12/27 01:45:47;;;;;;;9.18;3.40;;;;;;;;;;4878014;29;20139;-69
2020/12/27 01:48:15;;;;;;;10.05;4.13;;;;;;;;;;4893637;29;20051;-69
2020/12/27 01:50:51;;;;;;;8.45;4.07;;;;;;;;;;4892667;29;20056;-69
2020/12/27 01:53:32;;;;;;;7.63;3.83;;;;;;;;;;4893195;29;20059;-69
2020/12/27 01:56:01;;;;;;;10.83;3.93;;;;;;;;;;4893187;29;20056;-68
2020/12/27 01:58:32;;;;;;;16.33;4.38;;;;;;;;;;4894039;29;20056;-69
2020/12/27 02:01:05;;;;;;;10.80;4.40;;;;;;;;;;4892781;29;20478;-69
2020/12/27 02:03:48;;;;;;;10.98;4.60;;;;;;;;;;4890965;29;20153;-69
2020/12/27 02:06:24;;;;;;;7.65;3.97;;;;;;;;;;4876958;29;20071;-69
2020/12/27 02:08:57;;;;;;;12.65;4.95;;;;;;;;;;4870458;29;20092;-69
2020/12/27 02:11:32;;;;;;;11.90;3.95;;;;;;;;;;4875318;29;20144;-69
2020/12/27 02:13:59;;;;;;;18.67;4.35;;;;;;;;;;4872387;29;20092;-69
2020/12/27 02:16:29;;;;;;;8.52;4.00;;;;;;;;;;4891895;29;20045;-69
2020/12/27 02:19:28;;;;;;;7.40;4.00;;;;;;;;;;4847609;29;20063;-69
2020/12/27 02:22:00;;;;;;;12.95;3.95;;;;;;;;;;4890871;29;20160;-69
2020/12/27 02:24:49;;;;;;;10.95;3.83;;;;;;;;;;4844347;29;20052;-69
2020/12/27 02:27:19;;;;;;;7.93;3.90;;;;;;;;;;4890805;29;20057;-69
2020/12/27 02:29:50;;;;;;;7.50;3.55;;;;;;;;;;4890668;29;20048;-68
2020/12/27 02:32:20;;;;;;;10.35;3.38;;;;;;;;;;4887084;29;20052;-69
2020/12/27 02:34:46;;;;;;;8.60;3.78;;;;;;;;;;4897127;29;20049;-69
2020/12/27 02:37:13;;;;;;;9.93;3.90;;;;;;;;;;4892452;29;20052;-69
2020/12/27 02:39:53;;;;;;;8.63;3.22;;;;;;;;;;4892470;29;20309;-69
2020/12/27 02:42:20;;;;;;;10.60;3.25;;;;;;;;;;4897187;29;20097;-69
2020/12/27 02:47:48;;;;;;;6.80;3.58;;;;;;;;;;4889424;29;20113;-68
2020/12/27 02:50:26;;;;;;;8.98;3.30;;;;;;;;;;4875680;29;20513;-68
2020/12/27 02:52:52;;;;;;;8.88;3.50;;;;;;;;;;4875953;29;20068;-69
2020/12/27 02:55:18;;;;;;;5.93;3.15;;;;;;;;;;4875847;29;20040;-69
2020/12/27 02:57:50;;;;;;;10.05;3.25;;;;;;;;;;4873946;29;20072;-69
2020/12/27 03:00:18;;;;;;;8.02;3.85;;;;;;;;;;4890853;29;20135;-69
2020/12/27 03:03:05;;;;;;;7.10;3.65;;;;;;;;;;4887820;29;20059;-69
2020/12/27 03:05:36;;;;;;;6.32;3.35;;;;;;;;;;4888608;29;20053;-69
2020/12/27 03:08:02;;;;;;;10.40;3.67;;;;;;;;;;4890045;29;20059;-69
2020/12/27 03:10:47;;;;;;;10.38;4.22;;;;;;;;;;4893436;29;20071;-69
2020/12/27 03:13:13;;;;;;;7.72;3.92;;;;;;;;;;4877996;29;20041;-69
2020/12/27 03:15:39;;;;;;;8.07;4.05;;;;;;;;;;4891617;29;20049;-69
2020/12/27 03:18:38;;;;;;;9.10;3.67;;;;;;;;;;4852849;29;20060;-68
2020/12/27 03:21:30;;;;;;;11.48;3.45;;;;;;;;;;4876353;29;20061;-69
2020/12/27 03:23:57;;;;;;;8.52;3.35;;;;;;;;;;4887929;29;20080;-69
2020/12/27 03:26:30;;;;;;;9.13;3.33;;;;;;;;;;4874795;29;20064;-69
2020/12/27 03:28:56;;;;;;;7.90;3.60;;;;;;;;;;4889517;29;20040;-69
2020/12/27 03:31:27;;;;;;;9.55;3.20;;;;;;;;;;4891839;29;20096;-69
2020/12/27 03:34:01;;;;;;;5.45;3.20;;;;;;;;;;4887274;29;20616;-69
2020/12/27 03:36:42;;;;;;;3.92;2.70;;;;;;;;;;4891500;29;20055;-69
2020/12/27 03:39:25;;;;;;;6.18;2.95;;;;;;;;;;4879513;29;20041;-68
2020/12/27 03:42:18;;;;;;;5.10;2.75;;;;;;;;;;4889928;29;20599;-69
2020/12/27 03:44:53;;;;;;;4.15;2.70;;;;;;;;;;4896032;29;20049;-69
2020/12/27 03:47:42;;;;;;;;;;;;;;;;;;4879171;29;20139;-69
2020/12/27 03:50:15;;;;;;;5.13;2.72;;;;;;;;;;4893115;29;20048;-68
2020/12/27 03:52:49;;;;;;;5.63;2.60;;;;;;;;;;4895958;29;20048;-69
2020/12/27 03:55:35;;;;;;;5.93;2.85;;;;;;;;;;4894921;29;20067;-69
2020/12/27 03:58:26;;;;;;;6.38;2.60;;;;;;;;;;4892353;29;20573;-69
2020/12/27 04:01:06;;;;;;;3.95;2.70;;;;;;;;;;4894033;29;20053;-69
2020/12/27 04:03:35;;;;;;;5.78;2.72;;;;;;;;;;4894632;29;20055;-68
2020/12/27 04:06:09;;;;;;;5.07;2.70;;;;;;;;;;4892649;29;20047;-68
2020/12/27 04:08:38;;;;;;;6.20;2.85;;;;;;;;;;4897485;29;20052;-68
2020/12/27 04:11:07;;;;;;;10.45;2.90;;;;;;;;;;4881097;29;20053;-69
2020/12/27 04:13:35;;;;;;;5.95;3.08;;;;;;;;;;4887506;29;20113;-68
2020/12/27 04:16:08;;;;;;;6.50;2.97;;;;;;;;;;4894406;29;20493;-69
2020/12/27 04:18:36;;;;;;;;;;;;;;;;;;4899850;29;20073;-69
2020/12/27 04:21:25;;;;;;;4.18;2.78;;;;;;;;;;4892205;29;19938;-69
2020/12/27 04:24:02;;;;;;;5.97;3.13;;;;;;;;;;4882444;29;20068;-69
2020/12/27 04:26:31;;;;;;;6.32;3.45;;;;;;;;;;4882244;29;20045;-69
2020/12/27 04:29:02;;;;;;;7.32;3.58;;;;;;;;;;4895971;29;20075;-69
2020/12/27 04:31:29;;;;;;;5.45;3.38;;;;;;;;;;4885977;29;20041;-69
2020/12/27 04:34:05;;;;;;;6.90;3.72;;;;;;;;;;4874091;29;20140;-69
2020/12/27 04:36:39;;;;;;;7.55;3.83;;;;;;;;;;4884383;29;20056;-69
2020/12/27 04:39:08;;;;;;;5.35;4.22;;;;;;;;;;4895687;29;20052;-69
2020/12/27 04:41:43;;;;;;;8.13;3.83;;;;;;;;;;4887778;29;20048;-69
2020/12/27 04:44:17;;;;;;;7.15;3.50;;;;;;;;;;4889293;29;20082;-68
2020/12/27 04:46:46;;;;;;;5.00;3.53;;;;;;;;;;4879457;29;20400;-68
2020/12/27 04:49:24;;;;;;;8.43;4.18;;;;;;;;;;4891670;29;20058;-68
2020/12/27 04:52:01;;;;;;;6.50;3.55;;;;;;;;;;4898491;29;20405;-69
2020/12/27 04:55:00;;;;;;;;;;;;;;;;;;4880199;29;20064;-69
2020/12/27 04:57:58;;;;;;;6.45;3.90;;;;;;;;;;4862112;29;20339;-68
2020/12/27 05:00:35;;;;;;;6.50;3.50;;;;;;;;;;4889249;29;20053;-69
2020/12/27 05:03:21;;;;;;;8.48;3.92;;;;;;;;;;4890635;29;20113;-69
2020/12/27 05:05:48;;;;;;;5.47;4.03;;;;;;;;;;4886633;29;20077;-69
2020/12/27 05:08:14;;;;;;;10.00;4.38;;;;;;;;;;4882067;29;20045;-68
2020/12/27 05:10:47;;;;;;;6.22;3.50;;;;;;;;;;4877632;29;20045;-69
2020/12/27 05:13:15;;;;;;;8.27;4.07;;;;;;;;;;4900375;29;20469;-69
2020/12/27 05:15:50;;;;;;;5.97;3.45;;;;;;;;;;4890021;29;20067;-69
2020/12/27 05:18:16;;;;;;;6.30;3.13;;;;;;;;;;4877848;29;20044;-68
2020/12/27 05:20:46;;;;;;;7.85;3.33;;;;;;;;;;4879799;29;20063;-69
2020/12/27 05:23:15;;;;;;;5.75;3.30;;;;;;;;;;4895236;29;20463;-68
2020/12/27 05:25:49;;;;;;;7.57;2.80;;;;;;;;;;4875658;29;20524;-69
2020/12/27 05:28:35;;;;;;;4.78;3.47;;;;;;;;;;4875388;29;20069;-69
2020/12/27 05:31:13;;;;;;;4.70;2.92;;;;;;;;;;4895154;29;20056;-69
2020/12/27 05:33:57;;;;;;;6.03;3.28;;;;;;;;;;4890400;29;20052;-69
2020/12/27 05:36:44;;;;;;;8.43;2.80;;;;;;;;;;4887955;29;20071;-69
2020/12/27 05:39:31;;;;;;;5.85;3.17;;;;;;;;;;4893813;29;20497;-69
2020/12/27 05:42:12;;;;;;;5.55;3.25;;;;;;;;;;4878509;29;20056;-69
2020/12/27 05:44:38;;;;;;;5.28;3.00;;;;;;;;;;4884791;29;20049;-69
2020/12/27 05:47:08;;;;;;;8.90;3.72;;;;;;;;;;4880560;29;20053;-69
2020/12/27 05:49:35;;;;;;;;;;;;;;;;;;4880977;29;20053;-68
2020/12/27 05:52:13;;;;;;;5.13;3.40;;;;;;;;;;4884179;29;19927;-69
2020/12/27 05:54:48;;;;;;;4.80;3.05;;;;;;;;;;4894687;29;20769;-69
2020/12/27 05:57:21;;;;;;;5.95;2.78;;;;;;;;;;4887389;29;20462;-69
2020/12/27 05:59:49;;;;;;;3.83;2.97;;;;;;;;;;4895250;29;20055;-69
2020/12/27 06:02:41;;;;;;;5.78;2.97;;;;;;;;;;4889925;29;20041;-69
2020/12/27 06:05:41;;;;;;;6.22;3.00;;;;;;;;;;4892061;29;20140;-69
2020/12/27 06:08:28;;;;;;;6.13;2.63;;;;;;;;;;4894509;29;20100;-69
2020/12/27 06:10:59;;;;;;;3.88;2.50;;;;;;;;;;4893723;29;20052;-69
2020/12/27 06:13:28;;;;;;;3.88;2.40;;;;;;;;;;4880198;29;20040;-69
2020/12/27 06:16:19;;;;;;;5.38;2.50;;;;;;;;;;4892121;29;20056;-68
2020/12/27 06:19:17;;;;;;;6.32;2.35;;;;;;;;;;4893604;29;20044;-69
2020/12/27 06:21:51;;;;;;;4.72;2.38;;;;;;;;;;4842120;29;778558;-69
2020/12/27 06:24:22;;;;;;;3.85;2.20;;;;;;;;;;4854304;29;20542;-69
2020/12/27 06:26:48;;;;;;;3.13;2.30;;;;;;;;;;4873549;29;20049;-68
2020/12/27 06:29:32;;;;;;;5.82;2.50;;;;;;;;;;4872294;29;20056;-69
2020/12/27 06:31:59;;;;;;;3.28;2.28;;;;;;;;;;4876501;29;20051;-69
2020/12/27 06:34:46;;;;;;;2.65;1.90;;;;;;;;;;4859670;29;20137;-68
2020/12/27 06:37:15;;;;;;;5.78;2.42;;;;;;;;;;4870141;29;20064;-69
2020/12/27 06:40:02;;;;;;;2.72;2.38;;;;;;;;;;4876821;29;20594;-69
2020/12/27 06:42:47;;;;;;;3.10;2.08;;;;;;;;;;4881208;29;20072;-69
2020/12/27 06:45:26;;;;;;;2.85;2.05;;;;;;;;;;4858236;29;20065;-69
2020/12/27 06:48:29;;;;;;;2.53;2.10;;;;;;;;;;4871355;29;20082;-69
2020/12/27 06:51:10;;;;;;;2.78;1.45;;;;;;;;;;4884350;29;20136;-69
2020/12/27 06:53:40;;;;;;;6.95;1.88;;;;;;;;;;4855789;29;20067;-69
2020/12/27 06:56:35;;;;;;;2.55;1.67;;;;;;;;;;4875986;29;20084;-69
2020/12/27 06:59:23;;;;;;;4.32;2.08;;;;;;;;;;4886740;29;20410;-69
2020/12/27 07:02:04;;;;;;;3.63;1.90;;;;;;;;;;4878739;29;20053;-69
2020/12/27 07:04:35;;;;;;;4.18;1.75;;;;;;;;;;4872629;29;20097;-69
2020/12/27 07:07:01;;;;;;;3.60;2.13;;;;;;;;;;4860236;29;20053;-69
2020/12/27 07:09:27;;;;;;;3.08;1.92;;;;;;;;;;4873003;29;20412;-69
2020/12/27 07:12:06;;;;;;;2.35;1.70;;;;;;;;;;4875916;29;20041;-69
2020/12/27 07:14:37;;;;;;;4.05;1.90;;;;;;;;;;4870143;29;20069;-69
2020/12/27 07:17:05;;;;;;;2.88;1.80;;;;;;;;;;4870589;29;20049;-69
2020/12/27 07:19:32;;;;;;;2.83;2.08;;;;;;;;;;4873819;29;20124;-69
2020/12/27 07:22:02;;;;;;;2.90;2.08;;;;;;;;;;4889993;29;20099;-69
2020/12/27 07:24:32;;;;;;;3.22;2.00;;;;;;;;;;4897966;29;20053;-69
2020/12/27 07:27:00;;;;;;;4.30;1.95;;;;;;;;;;4888285;29;20048;-69
2020/12/27 07:29:26;;;;;;;3.03;2.20;;;;;;;;;;4888283;29;20101;-69
2020/12/27 07:31:53;;;;;;;4.47;2.13;;;;;;;;;;4897728;29;20053;-69
2020/12/27 07:34:24;;;;;;;3.43;2.40;;;;;;;;;;4889100;29;20055;-69
2020/12/27 07:36:57;;;;;;;4.07;2.00;;;;;;;;;;4891401;29;20074;-69
2020/12/27 07:39:41;;;;;;;3.25;1.90;;;;;;;;;;4892498;29;20304;-69
2020/12/27 07:42:17;;;;;;;2.75;2.10;;;;;;;;;;4888771;29;20049;-69
2020/12/27 07:44:45;;;;;;;7.57;2.30;;;;;;;;;;4879772;29;20049;-69
2020/12/27 07:47:11;;;;;;;;;;;;;;;;;;4896555;29;20053;-69
2020/12/27 07:49:37;;;;;;;3.88;2.08;;;;;;;;;;4896426;29;19931;-69
2020/12/27 07:52:04;;;;;;;4.07;2.38;;;;;;;;;;4887447;29;20049;-69
2020/12/27 07:54:30;;;;;;;3.30;2.30;;;;;;;;;;4880697;29;20045;-69
2020/12/27 07:56:56;;;;;;;4.40;2.05;;;;;;;;;;4890389;29;20518;-69
2020/12/27 07:59:22;;;;;;;2.30;1.80;;;;;;;;;;4899915;29;20044;-69
2020/12/27 08:01:48;;;;;;;3.28;2.20;;;;;;;;;;4887102;29;20075;-69
2020/12/27 08:04:16;;;;;;;1.95;1.20;;;;;;;;;;4896943;29;20485;-69
2020/12/27 08:06:42;;;;;;;2.28;1.98;;;;;;;;;;4885457;29;20045;-68
2020/12/27 08:09:10;;;;;;;5.88;2.00;;;;;;;;;;4893646;29;20049;-69
2020/12/27 08:11:37;;;;;;;5.18;1.80;;;;;;;;;;4892276;29;20051;-69
2020/12/27 08:14:04;;;;;;;3.65;1.95;;;;;;;;;;4891020;29;20148;-69
2020/12/27 08:16:30;;;;;;;3.30;1.67;;;;;;;;;;4891880;29;20101;-69
2020/12/27 08:19:03;;;;;;;3.92;2.28;;;;;;;;;;4896421;29;20049;-69
2020/12/27 08:21:29;;;;;;;1.98;1.50;;;;;;;;;;4889613;29;20170;-69
2020/12/27 08:24:16;;;;;;;3.10;2.40;;;;;;;;;;4893571;29;20040;-69
2020/12/27 08:26:44;;;;;;;4.38;1.40;;;;;;;;;;4902775;29;20097;-69
2020/12/27 08:29:19;;;;;;;2.88;1.38;;;;;;;;;;4893534;29;20049;-68
2020/12/27 08:31:45;;;;;;;3.40;1.33;;;;;;;;;;4892511;29;20409;-69
2020/12/27 08:34:19;;;;;;;3.28;1.30;;;;;;;;;;4891819;29;20051;-69
2020/12/27 08:36:47;;;;;;;2.25;1.40;;;;;;;;;;4890624;29;20104;-69
2020/12/27 08:39:19;;;;;;;3.45;1.70;;;;;;;;;;4896122;29;20204;-69
2020/12/27 08:41:51;;;;;;;2.65;1.40;;;;;;;;;;4894749;29;20040;-69
2020/12/27 08:44:28;;;;;;;3.22;1.80;;;;;;;;;;4892962;29;20069;-69
2020/12/27 08:46:56;;;;;;;2.60;1.67;;;;;;;;;;4890950;29;20041;-69
2020/12/27 08:49:29;;;;;;;3.05;1.50;;;;;;;;;;4893031;29;20104;-69
2020/12/27 08:52:01;;;;;;;2.00;1.70;;;;;;;;;;4893268;29;20052;-69
2020/12/27 08:54:28;;;;;;;4.57;2.08;;;;;;;;;;4896261;29;20045;-69
2020/12/27 08:56:54;;;;;;;4.68;2.38;;;;;;;;;;4895727;29;20048;-69
2020/12/27 08:59:20;;;;;;;2.53;1.83;;;;;;;;;;4896722;29;20587;-69
2020/12/27 09:01:50;;;;;;;2.78;1.80;;;;;;;;;;4896295;29;20476;-69
2020/12/27 09:04:17;;;;;;;3.70;2.00;;;;;;;;;;4896209;29;20049;-69
2020/12/27 09:06:53;;;;;;;4.70;2.25;;;;;;;;;;4895886;29;20062;-69
2020/12/27 09:09:19;;;;;;;5.15;2.20;;;;;;;;;;4896239;29;20627;-68
2020/12/27 09:11:46;;;;;;;6.07;2.38;;;;;;;;;;4894979;29;20063;-69
2020/12/27 09:14:31;;;;;;;3.38;2.47;;;;;;;;;;4893688;29;20137;-69
2020/12/27 09:17:00;;;;;;;6.35;2.97;;;;;;;;;;4896836;29;20116;-68
2020/12/27 09:19:26;;;;;;;3.88;2.38;;;;;;;;;;4895366;29;20068;-69
2020/12/27 09:21:52;;;;;;;5.30;2.38;;;;;;;;;;4887731;29;20052;-69
2020/12/27 09:24:18;;;;;;;4.07;2.33;;;;;;;;;;4893862;29;20071;-69
2020/12/27 09:26:44;;;;;;;3.70;2.03;;;;;;;;;;4887957;29;20033;-69
2020/12/27 09:29:14;;;;;;;4.30;2.17;;;;;;;;;;4890903;29;20457;-68
2020/12/27 09:31:40;;;;;;;3.60;2.10;;;;;;;;;;4888061;29;20105;-69
2020/12/27 09:34:06;;;;;;;4.00;2.13;;;;;;;;;;4888737;29;20053;-69
2020/12/27 09:36:33;;;;;;;5.47;1.98;;;;;;;;;;4892755;29;20116;-69
2020/12/27 09:39:00;;;;;;;4.63;2.30;;;;;;;;;;4890341;29;20048;-69
2020/12/27 09:41:26;;;;;;;2.65;1.55;;;;;;;;;;4891412;29;20040;-69
2020/12/27 09:43:54;;;;;;;3.33;1.85;;;;;;;;;;4893220;29;20106;-69
2020/12/27 09:46:40;;;;;;;2.10;1.60;;;;;;;;;;4891999;29;20148;-69
2020/12/27 09:49:22;;;;;;;5.28;1.27;;;;;;;;;;4895912;29;20048;-69
2020/12/27 09:52:03;;;;;;;3.88;1.38;;;;;;;;;;4893117;29;20461;-69
2020/12/27 09:54:30;;;;;;;2.63;1.38;;;;;;;;;;4890880;29;20045;-69
2020/12/27 09:56:57;;;;;;;2.33;1.50;;;;;;;;;;4887055;29;20049;-69
2020/12/27 09:59:23;;;;;;;1.58;1.48;;;;;;;;;;4891275;29;20580;-69
2020/12/27 10:01:49;;;;;;;3.15;1.70;;;;;;;;;;4890278;29;20515;-69
2020/12/27 10:04:15;;;;;;;4.97;1.48;;;;;;;;;;4895453;29;20072;-69
2020/12/27 10:06:41;;;;;;;2.88;1.40;;;;;;;;;;4892393;29;20053;-69
2020/12/27 10:09:08;;;;;;;2.65;1.50;;;;;;;;;;4893814;29;20041;-69
2020/12/27 10:11:34;;;;;;;3.50;1.73;;;;;;;;;;4893292;29;20068;-69
2020/12/27 10:14:00;;;;;;;1.70;1.55;;;;;;;;;;4891553;29;20044;-69
2020/12/27 10:16:26;;;;;;;2.97;1.60;;;;;;;;;;4891143;29;20133;-69
2020/12/27 10:18:52;;;;;;;2.55;1.20;;;;;;;;;;4894523;29;20490;-69
2020/12/27 10:21:18;;;;;;;1.55;1.45;;;;;;;;;;4892836;29;20084;-69
2020/12/27 10:23:44;;;;;;;3.13;1.70;;;;;;;;;;4887441;29;20461;-69
2020/12/27 10:26:11;;;;;;;4.57;1.83;;;;;;;;;;4890686;29;20133;-69
2020/12/27 10:28:37;;;;;;;4.00;2.28;;;;;;;;;;4889275;29;20501;-69
2020/12/27 10:31:04;;;;;;;1.83;1.60;;;;;;;;;;4894010;29;20049;-69
2020/12/27 10:33:30;;;;;;;1.83;1.42;;;;;;;;;;4891661;29;20064;-69
2020/12/27 10:35:58;;;;;;;1.58;1.27;;;;;;;;;;4889873;29;20079;-69
2020/12/27 10:38:25;;;;;;;4.28;1.40;;;;;;;;;;4888773;29;20036;-69
2020/12/27 10:40:51;;;;;;;1.90;1.30;;;;;;;;;;4890974;29;20105;-69
2020/12/27 10:43:19;;;;;;;2.92;1.23;;;;;;;;;;4889380;29;20048;-69
2020/12/27 10:45:45;;;;;;;2.17;1.20;;;;;;;;;;4890696;29;20053;-69
2020/12/27 10:48:11;;;;;;;2.03;1.50;;;;;;;;;;4890390;29;20131;-69
2020/12/27 10:50:38;;;;;;;1.50;1.25;;;;;;;;;;4894171;29;20509;-69
2020/12/27 10:53:04;;;;;;;2.42;1.55;;;;;;;;;;4877150;29;20404;-69
2020/12/27 10:55:30;;;;;;;2.58;1.50;;;;;;;;;;4893155;29;20059;-69
2020/12/27 10:57:56;;;;;;;3.20;1.45;;;;;;;;;;4891082;29;20044;-69
2020/12/27 11:00:22;;;;;;;1.50;1.17;;;;;;;;;;4889438;29;20167;-70
2020/12/27 11:02:48;;;;;;;1.73;1.13;;;;;;;;;;4895045;29;20516;-69
2020/12/27 11:05:15;;;;;;;1.48;1.13;;;;;;;;;;4892503;29;20043;-69
2020/12/27 11:07:41;;;;;;;1.63;1.13;;;;;;;;;;4891044;29;20115;-69
2020/12/27 11:10:08;;;;;;;1.30;1.20;;;;;;;;;;4888512;29;20535;-69
2020/12/27 11:12:34;;;;;;;2.15;1.27;;;;;;;;;;4893918;29;20048;-69
2020/12/27 11:15:00;;;;;;;1.10;0.95;;;;;;;;;;4889628;29;20045;-69
2020/12/27 11:17:27;;;;;;;1.60;0.95;;;;;;;;;;4886696;29;20093;-69
2020/12/27 11:19:53;;;;;;;2.58;1.10;;;;;;;;;;4888434;29;20063;-69
2020/12/27 11:22:19;;;;;;;2.40;0.77;;;;;;;;;;4888115;29;20060;-69
2020/12/27 11:24:45;;;;;;;0.77;0.77;;;;;;;;;;4890717;29;20123;-69
2020/12/27 11:27:11;;;;;;;1.02;0.93;;;;;;;;;;4889698;29;20048;-69
2020/12/27 11:29:37;;;;;;;1.08;0.80;;;;;;;;;;4889868;29;20626;-69
2020/12/27 11:32:03;;;;;;;0.98;0.98;;;;;;;;;;4892173;29;20131;-69
2020/12/27 11:34:29;;;;;;;1.55;1.00;;;;;;;;;;4892837;29;20049;-69
2020/12/27 11:36:56;;;;;;;1.48;1.10;;;;;;;;;;4888891;29;20048;-69
2020/12/27 11:39:22;;;;;;;1.50;1.00;;;;;;;;;;4892317;29;20048;-70
2020/12/27 11:41:50;;;;;;;1.75;1.20;;;;;;;;;;4896015;29;20049;-69
2020/12/27 11:44:16;;;;;;;1.30;1.00;;;;;;;;;;4891960;29;20040;-69
2020/12/27 11:46:42;;;;;;;1.27;0.98;;;;;;;;;;4892946;29;20408;-69
2020/12/27 11:49:09;;;;;;;2.35;1.35;;;;;;;;;;4887107;29;20041;-69
2020/12/27 11:51:35;;;;;;;1.80;1.35;;;;;;;;;;4891073;29;20049;-69
2020/12/27 11:54:01;;;;;;;1.88;1.05;;;;;;;;;;4894499;29;20449;-69
2020/12/27 11:56:28;;;;;;;1.33;1.08;;;;;;;;;;4893582;29;20071;-69
2020/12/27 11:58:54;;;;;;;1.67;1.23;;;;;;;;;;4896706;29;20122;-69
2020/12/27 12:01:21;;;;;;;0.80;0.80;;;;;;;;;;4895422;29;20049;-69
2020/12/27 12:03:47;;;;;;;2.40;1.35;;;;;;;;;;4890738;29;20119;-69
2020/12/27 12:06:20;;;;;;;3.13;1.27;;;;;;;;;;4893590;29;20045;-69
2020/12/27 12:08:46;;;;;;;3.17;1.40;;;;;;;;;;4896994;29;20084;-69
2020/12/27 12:11:13;;;;;;;1.85;1.38;;;;;;;;;;4894248;29;20048;-69
2020/12/27 12:13:39;;;;;;;2.28;1.40;;;;;;;;;;4899281;29;20559;-68
2020/12/27 12:16:06;;;;;;;1.45;1.30;;;;;;;;;;4894570;29;20048;-69
2020/12/27 12:18:32;;;;;;;2.90;1.55;;;;;;;;;;4894065;29;20049;-69
2020/12/27 12:20:58;;;;;;;3.08;1.35;;;;;;;;;;4887703;29;20077;-69
2020/12/27 12:23:24;;;;;;;4.68;1.80;;;;;;;;;;4889723;29;20048;-69
2020/12/27 12:25:50;;;;;;;2.42;1.50;;;;;;;;;;4893418;29;20059;-69
2020/12/27 12:28:16;;;;;;;2.25;1.40;;;;;;;;;;4893421;29;20412;-69
2020/12/27 12:30:43;;;;;;;2.72;1.42;;;;;;;;;;4892327;29;20044;-69
2020/12/27 12:33:10;;;;;;;1.73;1.25;;;;;;;;;;4894254;29;20044;-69
2020/12/27 12:35:36;;;;;;;3.38;1.50;;;;;;;;;;4892700;29;20048;-69
2020/12/27 12:38:03;;;;;;;2.53;1.65;;;;;;;;;;4892959;29;20589;-69
2020/12/27 12:40:29;;;;;;;1.52;1.25;;;;;;;;;;4891684;29;20108;-69
2020/12/27 12:42:55;;;;;;;4.05;1.65;;;;;;;;;;4893015;29;20044;-69
2020/12/27 12:45:21;;;;;;;2.60;1.58;;;;;;;;;;4893591;29;20048;-69
2020/12/27 12:47:47;;;;;;;1.83;1.20;;;;;;;;;;4893468;29;20509;-69
2020/12/27 12:50:13;;;;;;;1.65;1.30;;;;;;;;;;4891404;29;20144;-68
2020/12/27 12:52:40;;;;;;;3.38;1.30;;;;;;;;;;4891257;29;20057;-69
2020/12/27 12:55:07;;;;;;;1.33;1.23;;;;;;;;;;4889740;29;20069;-69
2020/12/27 12:57:33;;;;;;;2.03;1.30;;;;;;;;;;4894398;29;20044;-69
2020/12/27 12:59:59;;;;;;;1.63;1.30;;;;;;;;;;4887375;29;20061;-70
2020/12/27 13:02:25;;;;;;;3.63;1.65;;;;;;;;;;4895951;29;20076;-69
2020/12/27 13:04:51;;;;;;;1.77;1.38;;;;;;;;;;4889031;29;20041;-69
2020/12/27 13:07:18;;;;;;;4.55;1.42;;;;;;;;;;4899351;29;20400;-69
2020/12/27 13:09:44;;;;;;;3.30;1.75;;;;;;;;;;4893090;29;20116;-69
2020/12/27 13:12:27;;;;;;;2.10;1.60;;;;;;;;;;4893232;29;20135;-69
2020/12/27 13:14:53;;;;;;;2.45;1.50;;;;;;;;;;4893997;29;20041;-69
2020/12/27 13:17:19;;;;;;;1.80;1.63;;;;;;;;;;4891092;29;20044;-69
2020/12/27 13:19:45;;;;;;;2.50;1.70;;;;;;;;;;4893523;29;20040;-69
2020/12/27 13:22:12;;;;;;;3.35;1.67;;;;;;;;;;4892237;29;20067;-69
2020/12/27 13:24:38;;;;;;;3.15;2.25;;;;;;;;;;4894212;29;20047;-69
2020/12/27 13:27:05;;;;;;;3.78;1.85;;;;;;;;;;4891245;29;20045;-69
2020/12/27 13:29:31;;;;;;;2.20;1.80;;;;;;;;;;4896799;29;20066;-69
2020/12/27 13:31:57;;;;;;;2.63;1.70;;;;;;;;;;4894577;29;20496;-69
2020/12/27 13:34:23;;;;;;;4.18;2.00;;;;;;;;;;4878011;29;20052;-69
2020/12/27 13:36:49;;;;;;;2.92;2.05;;;;;;;;;;4891950;29;20091;-69
2020/12/27 13:39:15;;;;;;;4.78;2.20;;;;;;;;;;4885786;29;20404;-69
2020/12/27 13:41:41;;;;;;;3.25;2.17;;;;;;;;;;4873989;29;20124;-69
2020/12/27 13:44:07;;;;;;;3.17;2.17;;;;;;;;;;4877387;29;20200;-69
2020/12/27 13:46:37;;;;;;;2.53;1.90;;;;;;;;;;4883572;29;20076;-69
2020/12/27 13:49:05;;;;;;;3.80;2.20;;;;;;;;;;4888295;29;20471;-69
2020/12/27 13:51:31;;;;;;;4.00;2.20;;;;;;;;;;4885130;29;20108;-69
2020/12/27 13:53:58;;;;;;;3.45;2.38;;;;;;;;;;4893880;29;20052;-69
2020/12/27 13:56:24;;;;;;;3.75;2.30;;;;;;;;;;4891239;29;20043;-69
2020/12/27 13:58:51;;;;;;;3.03;2.22;;;;;;;;;;4891824;29;20049;-70
2020/12/27 14:01:18;;;;;;;3.20;2.13;;;;;;;;;;4894162;29;20501;-69
2020/12/27 14:03:44;;;;;;;4.47;2.38;;;;;;;;;;4886796;29;20049;-69
2020/12/27 14:06:11;;;;;;;3.97;2.20;;;;;;;;;;4890533;29;20055;-70
2020/12/27 14:08:38;;;;;;;;;;;;;;;;;;4890089;29;20049;-70
2020/12/27 14:11:07;;;;;;;3.28;2.38;;;;;;;;;;4894172;29;19991;-69
2020/12/27 14:13:34;;;;;;;2.65;1.98;;;;;;;;;;4894272;29;20049;-69
2020/12/27 14:16:00;;;;;;;5.57;2.40;;;;;;;;;;4894813;29;20049;-69
2020/12/27 14:18:26;;;;;;;3.45;2.03;;;;;;;;;;4885911;29;20047;-69
2020/12/27 14:20:52;;;;;;;2.65;1.98;;;;;;;;;;4897696;29;20052;-70
2020/12/27 14:23:19;;;;;;;3.03;2.13;;;;;;;;;;4889676;29;20037;-69
2020/12/27 14:25:45;;;;;;;4.20;2.30;;;;;;;;;;4885829;29;20051;-70
2020/12/27 14:28:11;;;;;;;3.00;2.25;;;;;;;;;;4891131;29;20828;-70
2020/12/27 14:30:37;;;;;;;2.67;2.00;;;;;;;;;;4871763;29;20133;-70
2020/12/27 14:33:04;;;;;;;3.95;2.50;;;;;;;;;;4889408;29;20048;-70
2020/12/27 14:35:30;;;;;;;2.78;2.10;;;;;;;;;;4883239;29;20061;-70
2020/12/27 14:37:57;;;;;;;4.90;2.72;;;;;;;;;;4890670;29;20060;-70
2020/12/27 14:40:33;;;;;;;3.22;2.13;;;;;;;;;;4887080;29;20068;-70
2020/12/27 14:42:59;;;;;;;3.40;2.13;;;;;;;;;;4885631;29;20064;-70
2020/12/27 14:45:25;;;;;;;3.30;2.50;;;;;;;;;;4887396;29;20045;-70
2020/12/27 14:47:52;;;;;;;3.10;2.35;;;;;;;;;;4890188;29;20073;-70
2020/12/27 14:50:18;;;;;;;3.70;1.90;;;;;;;;;;4879548;29;20551;-70
2020/12/27 14:52:45;;;;;;;6.03;3.92;;;;;;;;;;4895383;29;20583;-70
2020/12/27 14:55:17;;;;;;;;;;;;;;;;;;4895208;29;20048;-70
2020/12/27 14:57:44;;;;;;;4.28;1.92;;;;;;;;;;4891050;29;19931;-70
2020/12/27 15:00:10;;;;;;;3.40;2.40;;;;;;;;;;4894107;29;20049;-69
2020/12/27 15:02:36;;;;;;;4.18;2.35;;;;;;;;;;4895742;29;20056;-69
2020/12/27 15:05:03;;;;;;;3.47;2.10;;;;;;;;;;4898990;29;20060;-70
2020/12/27 15:07:29;;;;;;;6.50;2.75;;;;;;;;;;4892090;29;20044;-70
2020/12/27 15:09:55;;;;;;;4.10;2.75;;;;;;;;;;4895373;29;20056;-70